Pagina principale
METAR-TAF:

METAR-TAF

Aeroporti :

Figari, Francia

Aeroporto di Figari Corsica del Sud

latitudine: 41-30N, longitudine: 009-06E, altezza: 26 m

Osservazione

Il bollettino è stato emesso 44 minuti fa, alle 06:00 UTC
Vento 11 kt da ovest/sud-ovest
Temperature 23°C
Umidità 65%
Pressione 1006 hPa
Visibilità 10 km o più
nessuna nube inferiore a 1500 m e nessun cumulonembo

METAR: LFKF 260600Z AUTO 24011KT CAVOK 23/16 Q1006 NOSIG

Ora: 08:44 (06:44 UTC)

Previsione

Il bollettino è stato emesso 4 ore e 44 minuti fa, alle 02:00 UTC
Previsione valida dal 26 alle 03 UTC al 27 alle 03 UTC
Vento 13 kt da ovest/sud-ovest
Visibilità 10 km o più
Poco nuvoloso ad un'altezza di 3500 ft
Temporaneamente
dal 26 alle 09 UTC al 26 alle 23 UTC
Vento 23 kt da ovest/sud-ovest con raffiche fino a 33 kt

TAF: LFKF 260200Z 2603/2703 24013KT 9999 FEW035 TEMPO 2609/2623 24023G33KT

Osservazioni e previsioni meteorologiche di più di 4000 aeroporti (messaggi METAR e TAF).

Le stazioni disponibili sono rappresentate dai dischi gialli e rossi sulla carta.

Puntare il mouse per vedere il nome della stazione.

Clicca sopra per visualizzare le osservazioni e previsioni meteorologiche.

Per cambiare la mappa : fare clic sui pulsanti verdi con una croce nera per ingrandire, il pulsante verde con un trattino per diminuire, o sulla freccia verde per le mappe adiacenti.


METAR-TAF: